My Meet Scores
Isabella Giuliano, Flip Flop Gymnastics LLC - MyMeetScores.com
Top100 | Top Teams | Upcoming Meets | Completed Meets | Latest | Add Scores | Help| Support | Bookmark and Share

Isabella Giuliano, Flip Flop Gymnastics LLC
Personal Bests
LevelVault BarsBeamFloorAA
XB8.9008.800 9.0008.80035.500
XG9.4009.400 9.4509.30036.900
XS9.4009.325 9.2509.30037.050
Meet Scores
Date Meet Team Session Level Division Vault Bars Beam Floor AA
2020-03-08 ABC Shoreline Local Qualifier - March 8th 2020 Flip Flop Gymnastics LLC 4 XG Jr/Sr 12+ 9.200 14T 8.850 31T 9.450 8T 9.300 13T 36.800 14
2020-02-15 2/15/20-2/16/20 CT FVG In house Valentine Inv Flip Flop Gymnastics LLC 4 XG Sr A 8.750 7T 8.950 6 9.075 7 9.300 2T 36.075 5
2020-01-24 2020 Kinetic Kids Invitational Flip Flop Gymnastics LLC 2 XG Sr B 8.750 6T 9.050 5 8.500 6T 9.025 4 35.325 5T
2019-12-06 Rhode Island Invitational Flip Flop Gymnastics LLC SS2 XG junior 8.825 7 7.850 12 8.850 5 8.925 8 34.450 9
2019-04-27 Xcel Gold, Platinum, Diamond State Championsh Flip Flop Gymnastics LLC 4 XG Jr E 9.100 22T 8.950 15 9.150 18 9.050 21T 36.250 12
2019-02-09 2/9-2/10 CT Inhouse Valentines Invitational Flip Flop Gymnastics LLC 2 XG Middle 9.400 1 9.150 5 9.300 2 9.050 6T 36.900 3
2019-01-25 Kinetic Kids Invitational 2019 Flip Flop Gymnastics LLC 6 XG Sr A 9.075 5 9.100 6 9.300 3 9.125 7 36.600 3
2018-11-30 Rhode Island Invitational Flip Flop Gymnastics LLC BF1 XG Junior B 8.750 6 8.875 1 8.750 3 8.400 9 34.775 3
2018-04-21 2018 Connecticut XG, XP, XD State Championships Flip Flop Gymnastics LLC 2 XG Ch. G 8.450 47T 8.900 28T 8.100 51 8.525 54 33.975 54
2018-03-03 Flip-Flop Gymnastics Local Meet Flip Flop Gymnastics LLC 2 XG 10-12 yrs. 8.500 26T 9.400 5T 9.100 10T 8.800 26T 35.800 10
2018-02-15 Edgewater Classic BEACH Resort Meet Flip Flop Gymnastics LLC 04 XG Jr C 8.750 12 8.750 11 8.900 4 8.600 12 35.000 10
2018-01-12 DGS Invitational Flip Flop Gymnastics LLC 6B XG 12 yrs. 8.550 8 8.625 7 8.850 5 8.650 14 34.675 6T
2017-11-30 Rhode Island Invitational Flip Flop Gymnastics LLC BF2 XG Child 7.425 6 8.550 3 8.425 2 8.450 4 32.850 3
2017-05-06 2017 Connecticut XS State Championships Flip Flop Gymnastics LLC 5 XS Jr F 9.100 3 9.300 3 9.200 4T 9.150 9 36.750 3
2017-01-13 Northeast Invitational Flip Flop Gymnastics LLC 12 XS 11 yrs. 9.250 1 9.250 3 9.250 3 9.300 1T 37.050 1
2016-12-02 Rhode Island Invitational Flip Flop Gymnastics LLC WU4 XS intermedia 7.925 13 9.300 4 8.875 8 8.775 9 34.875 9
2016-11-18 2016 Muriel Grossfeld Invitational Flip Flop Gymnastics LLC 4 XS Junior 8.450 6T 9.050 4 8.300 11T 9.150 2 34.950 4
2016-04-30 2016 Connecticut XS State Championships Flip Flop Gymnastics LLC All XS ChF 8.700 11 8.875 12 9.000 10T 8.650 14T 35.225 13
2016-01-15 DGS Invitational Flip Flop Gymnastics LLC B1 XS 10 yrs. 9.400 2 8.750 12 8.900 10T 8.600 12 35.650 9T
2015-12-04 Rhode Island Invitational Flip Flop Gymnastics LLC GU2 XS Child 8.350 8 9.125 3 9.000 4 8.550 8 35.025 5
2015-11-21 2015 Muriel Grossfeld Invitational Flip Flop Gymnastics LLC 1 XS Jr A 7.750 20 9.325 9 8.800 12T 8.325 10 34.200 12T
2014-03-06 Holiday Costume Cup 2014 Shoreline Gymnastics 3 XB Junior 8.900 2T 8.800 5 9.000 3T 8.800 5T 35.500 4
2014-01-31 American Invitational 2014 Shoreline Gymnastics 5A XB Junior 8.500 8T 8.300 8 8.200 7 8.725 8 33.725 8
Get your scores on
a t-shirt, pin, or hoodie

www.lazysuits.com